createdAt,value
2022-10-17T00:01:29.226Z,1.80
2022-10-17T00:03:55.965Z,2.33
2022-10-17T00:06:24.026Z,2.47
2022-10-17T00:08:50.755Z,2.20
2022-10-17T00:11:19.694Z,1.77
2022-10-17T00:13:47.064Z,1.97
2022-10-17T00:16:14.845Z,2.00
2022-10-17T00:18:41.545Z,2.40
2022-10-17T00:21:16.159Z,2.30
2022-10-17T00:23:44.283Z,1.90
2022-10-17T00:26:11.083Z,2.17
2022-10-17T00:28:37.858Z,2.47
2022-10-17T00:31:06.692Z,2.77
2022-10-17T00:33:34.313Z,2.13
2022-10-17T00:36:06.074Z,2.00
2022-10-17T00:38:33.073Z,2.70
2022-10-17T00:41:01.155Z,2.57
2022-10-17T00:43:28.089Z,2.40
2022-10-17T00:45:54.909Z,2.37
2022-10-17T00:48:23.322Z,3.03
2022-10-17T00:50:50.586Z,2.20
2022-10-17T00:53:18.418Z,2.13
2022-10-17T00:55:50.445Z,2.57
2022-10-17T00:58:19.860Z,2.57
2022-10-17T01:00:47.967Z,3.20
2022-10-17T01:03:14.754Z,2.43
2022-10-17T01:05:42.144Z,2.87
2022-10-17T01:08:09.493Z,1.93
2022-10-17T01:10:45.969Z,2.40
2022-10-17T01:13:23.109Z,1.90
2022-10-17T01:15:58.561Z,2.53
2022-10-17T01:18:37.180Z,2.70
2022-10-17T01:21:18.063Z,2.70
2022-10-17T01:24:23.521Z,2.30
2022-10-17T01:27:08.590Z,2.70
2022-10-17T01:29:52.288Z,2.70
2022-10-17T01:32:29.251Z,3.10
2022-10-17T01:34:59.811Z,2.40
2022-10-17T01:37:31.919Z,2.30
2022-10-17T01:40:07.333Z,2.47
2022-10-17T01:42:42.333Z,1.80
2022-10-17T01:45:13.983Z,2.60
2022-10-17T01:47:42.896Z,3.10
2022-10-17T01:50:15.507Z,3.33
2022-10-17T01:52:46.425Z,3.20
2022-10-17T01:55:18.812Z,3.33
2022-10-17T01:57:49.948Z,3.23
2022-10-17T02:00:20.669Z,3.37
2022-10-17T02:02:52.104Z,2.83
2022-10-17T02:05:23.093Z,2.93
2022-10-17T02:07:49.809Z,3.40
2022-10-17T02:10:35.391Z,3.63
2022-10-17T02:13:08.402Z,3.50
2022-10-17T02:15:52.075Z,3.30
2022-10-17T02:18:34.035Z,3.33
2022-10-17T02:21:06.011Z,3.07
2022-10-17T02:23:38.338Z,3.90
2022-10-17T02:26:11.825Z,2.70
2022-10-17T02:28:43.314Z,3.23
2022-10-17T02:31:15.281Z,3.70
2022-10-17T02:33:48.947Z,3.70
2022-10-17T02:36:20.608Z,3.93
2022-10-17T02:38:48.965Z,3.80
2022-10-17T02:41:18.350Z,4.00
2022-10-17T02:43:47.157Z,3.67
2022-10-17T02:46:15.217Z,3.00
2022-10-17T02:48:48.570Z,4.23
2022-10-17T02:51:23.938Z,2.80
2022-10-17T02:53:57.191Z,3.53
2022-10-17T02:56:25.784Z,4.60
2022-10-17T02:58:57.055Z,3.70
2022-10-17T03:01:24.821Z,4.03
2022-10-17T03:04:04.925Z,3.90
2022-10-17T03:06:31.719Z,3.30
2022-10-17T03:08:58.428Z,4.23
2022-10-17T03:11:25.197Z,3.70
2022-10-17T03:13:51.930Z,4.40
2022-10-17T03:16:18.685Z,4.30
2022-10-17T03:18:47.991Z,4.60
2022-10-17T03:21:18.144Z,4.40
2022-10-17T03:23:44.824Z,4.07
2022-10-17T03:26:11.589Z,4.03
2022-10-17T03:28:38.425Z,3.23
2022-10-17T03:31:07.739Z,4.97
2022-10-17T03:33:34.507Z,4.60
2022-10-17T03:36:05.726Z,4.00
2022-10-17T03:38:34.049Z,3.60
2022-10-17T03:41:00.801Z,4.00
2022-10-17T03:43:27.532Z,4.43
2022-10-17T03:45:54.238Z,4.80
2022-10-17T03:48:20.975Z,5.23
2022-10-17T03:50:47.698Z,4.07
2022-10-17T03:53:14.467Z,3.10
2022-10-17T03:55:42.586Z,4.80
2022-10-17T03:58:09.276Z,5.00
2022-10-17T04:00:36.032Z,4.90
2022-10-17T04:03:02.971Z,4.10
2022-10-17T04:05:29.668Z,4.10
2022-10-17T04:07:58.668Z,4.23
2022-10-17T04:10:27.807Z,3.70
2022-10-17T04:12:56.040Z,4.80
2022-10-17T04:15:22.759Z,3.03
2022-10-17T04:17:49.491Z,4.57
2022-10-17T04:20:16.301Z,4.90
2022-10-17T04:22:43.049Z,5.23
2022-10-17T04:25:09.883Z,5.27
2022-10-17T04:27:36.638Z,5.50
2022-10-17T04:30:05.708Z,4.60
2022-10-17T04:32:35.909Z,4.50
2022-10-17T04:35:02.712Z,5.37
2022-10-17T04:37:29.478Z,4.07
2022-10-17T04:39:56.225Z,4.17
2022-10-17T04:42:23.081Z,5.70
2022-10-17T04:44:49.911Z,4.33
2022-10-17T04:47:17.983Z,5.10
2022-10-17T04:49:44.709Z,4.83
2022-10-17T04:52:11.518Z,4.67
2022-10-17T04:54:38.235Z,4.90
2022-10-17T04:57:04.950Z,3.70
2022-10-17T04:59:31.674Z,4.97
2022-10-17T05:01:58.400Z,3.90
2022-10-17T05:04:26.444Z,4.60
2022-10-17T05:06:53.312Z,5.43
2022-10-17T05:09:20.060Z,5.17
2022-10-17T05:11:46.793Z,4.40
2022-10-17T05:14:13.538Z,5.00
2022-10-17T05:16:40.271Z,4.70
2022-10-17T05:19:06.984Z,5.30
2022-10-17T05:21:35.181Z,5.40
2022-10-17T05:24:01.883Z,5.60
2022-10-17T05:26:28.673Z,4.60
2022-10-17T05:28:55.458Z,4.77
2022-10-17T05:31:22.343Z,4.40
2022-10-17T05:33:49.131Z,5.40
2022-10-17T05:36:15.917Z,4.80
2022-10-17T05:38:44.145Z,5.37
2022-10-17T05:41:11.141Z,5.20
2022-10-17T05:43:38.112Z,4.93
2022-10-17T05:46:06.054Z,4.50
2022-10-17T05:48:33.486Z,4.93
2022-10-17T05:51:01.435Z,4.07
2022-10-17T05:53:30.954Z,4.00
2022-10-17T05:56:00.851Z,5.27
2022-10-17T06:01:15.188Z,4.73
2022-10-17T06:03:41.950Z,4.73
2022-10-17T06:06:11.427Z,6.10
2022-10-17T06:09:24.830Z,5.80
2022-10-17T06:12:18.040Z,4.97
2022-10-17T06:14:46.325Z,4.67
2022-10-17T06:17:16.283Z,4.87
2022-10-17T06:19:43.295Z,4.97
2022-10-17T06:22:10.276Z,4.97
2022-10-17T06:24:37.072Z,6.03
2022-10-17T06:27:08.042Z,5.50
2022-10-17T06:29:39.245Z,4.07
2022-10-17T06:32:08.628Z,4.50
2022-10-17T06:34:38.415Z,4.40
2022-10-17T06:37:05.245Z,4.97
2022-10-17T06:39:32.006Z,4.40
2022-10-17T06:41:58.762Z,5.90
2022-10-17T06:44:25.600Z,5.27
2022-10-17T06:46:53.967Z,4.70
2022-10-17T06:49:23.711Z,4.60
2022-10-17T06:51:51.217Z,4.30
2022-10-17T06:54:21.467Z,5.10
2022-10-17T06:56:48.315Z,4.97
2022-10-17T06:59:15.263Z,4.10
2022-10-17T07:01:46.121Z,3.73
2022-10-17T07:04:18.675Z,4.87
2022-10-17T07:06:46.875Z,4.60
2022-10-17T07:09:13.675Z,4.27
2022-10-17T07:11:40.503Z,5.47
2022-10-17T07:14:07.505Z,4.77
2022-10-17T07:16:34.696Z,3.80
2022-10-17T07:19:01.476Z,4.17
2022-10-17T07:21:36.605Z,4.50
2022-10-17T07:24:06.601Z,4.67
2022-10-17T07:26:33.999Z,4.53
2022-10-17T07:29:02.060Z,5.20
2022-10-17T07:31:28.937Z,4.13
2022-10-17T07:33:55.660Z,4.60
2022-10-17T07:36:22.353Z,2.93
2022-10-17T07:38:50.485Z,4.60
2022-10-17T07:41:19.487Z,3.77
2022-10-17T07:43:48.800Z,3.50
2022-10-17T07:46:15.631Z,4.30
2022-10-17T07:48:42.350Z,4.63
2022-10-17T07:51:10.404Z,3.20
2022-10-17T07:53:38.708Z,3.20
2022-10-17T07:56:08.542Z,3.53
2022-10-17T07:58:36.189Z,3.30
2022-10-17T08:01:04.362Z,3.90
2022-10-17T08:03:31.123Z,3.50
2022-10-17T08:05:58.355Z,3.40
2022-10-17T08:08:25.231Z,3.50
2022-10-17T08:10:52.241Z,3.97
2022-10-17T08:13:21.101Z,3.30
2022-10-17T08:15:47.883Z,3.50
2022-10-17T08:18:14.757Z,3.27
2022-10-17T08:20:41.905Z,3.40
2022-10-17T08:23:08.750Z,3.37
2022-10-17T08:25:39.182Z,3.67
2022-10-17T08:30:34.590Z,3.50
2022-10-17T08:33:01.342Z,3.20
2022-10-17T08:35:28.268Z,3.80
2022-10-17T08:37:55.084Z,3.23
2022-10-17T08:40:25.475Z,3.90
2022-10-17T08:43:11.869Z,2.73
2022-10-17T08:45:47.267Z,2.73
2022-10-17T08:48:16.860Z,3.40
2022-10-17T08:50:48.802Z,3.33
2022-10-17T08:53:20.319Z,3.60
2022-10-17T08:55:51.386Z,3.00
2022-10-17T08:58:21.668Z,3.07
2022-10-17T09:00:57.721Z,3.20
2022-10-17T09:03:51.361Z,2.97
2022-10-17T09:06:22.253Z,2.70
2022-10-17T09:09:07.223Z,3.10
2022-10-17T09:11:59.475Z,2.63
2022-10-17T09:14:47.763Z,2.80
2022-10-17T09:17:31.429Z,3.17
2022-10-17T09:20:04.421Z,2.90
2022-10-17T09:22:38.197Z,3.70
2022-10-17T09:25:11.046Z,3.03
2022-10-17T09:27:41.655Z,3.03
2022-10-17T09:30:44.135Z,3.07
2022-10-17T09:33:28.195Z,3.20
2022-10-17T09:36:04.051Z,2.80
2022-10-17T09:38:37.720Z,2.53
2022-10-17T09:41:25.548Z,3.10
2022-10-17T09:43:56.843Z,2.93
2022-10-17T09:46:29.326Z,2.50
2022-10-17T09:49:03.788Z,3.30
2022-10-17T09:51:31.887Z,3.00
2022-10-17T09:54:03.718Z,2.43
2022-10-17T09:56:30.511Z,2.70
2022-10-17T09:58:58.364Z,2.33
2022-10-17T10:01:26.739Z,2.67
2022-10-17T10:07:02.982Z,3.10
2022-10-17T10:09:33.348Z,3.50
2022-10-17T10:12:07.055Z,2.60
2022-10-17T10:14:37.204Z,2.87
2022-10-17T10:17:06.206Z,3.60
2022-10-17T10:19:34.901Z,2.87
2022-10-17T10:22:04.200Z,2.70
2022-10-17T10:24:31.769Z,3.00
2022-10-17T10:27:00.951Z,2.80
2022-10-17T10:29:29.957Z,2.67
2022-10-17T10:31:58.659Z,2.90
2022-10-17T10:34:27.987Z,3.57
2022-10-17T10:36:59.727Z,2.43
2022-10-17T10:39:33.318Z,3.37
2022-10-17T10:42:01.170Z,3.00
2022-10-17T10:44:31.274Z,2.40
2022-10-17T10:47:26.870Z,2.50
2022-10-17T10:50:08.332Z,2.90
2022-10-17T10:52:41.588Z,2.53
2022-10-17T10:55:21.134Z,2.47
2022-10-17T10:57:52.512Z,2.57
2022-10-17T11:00:23.039Z,2.23
2022-10-17T11:03:01.761Z,2.33
2022-10-17T11:05:39.532Z,2.97
2022-10-17T11:08:13.676Z,2.77
2022-10-17T11:10:57.562Z,2.77
2022-10-17T11:13:30.612Z,2.43
2022-10-17T11:16:04.101Z,2.37
2022-10-17T11:18:35.596Z,2.80
2022-10-17T11:21:09.959Z,2.33
2022-10-17T11:23:41.427Z,2.50
2022-10-17T11:26:15.196Z,2.80
2022-10-17T11:28:42.212Z,3.20
2022-10-17T11:31:13.147Z,3.00
2022-10-17T11:33:45.977Z,2.77
2022-10-17T11:36:14.386Z,2.90
2022-10-17T11:38:47.668Z,2.43
2022-10-17T11:41:22.233Z,3.20
2022-10-17T11:43:54.623Z,3.47
2022-10-17T11:46:23.017Z,3.20
2022-10-17T11:48:59.712Z,3.20
2022-10-17T11:54:17.714Z,3.27
2022-10-17T11:57:02.905Z,2.83
2022-10-17T11:59:50.971Z,3.20
2022-10-17T12:02:25.473Z,2.80
2022-10-17T12:04:58.721Z,3.13
2022-10-17T12:07:37.327Z,2.97
2022-10-17T12:10:16.526Z,3.20
2022-10-17T12:12:44.935Z,3.00
2022-10-17T12:15:30.963Z,5.00
2022-10-17T12:17:59.218Z,3.80
2022-10-17T12:20:32.055Z,3.03
2022-10-17T12:23:17.155Z,2.77
2022-10-17T12:25:50.064Z,4.67
2022-10-17T12:28:25.512Z,3.73
2022-10-17T12:30:56.093Z,3.20
2022-10-17T12:33:32.676Z,3.00
2022-10-17T12:36:44.364Z,3.60
2022-10-17T12:39:50.902Z,4.30
2022-10-17T12:42:32.728Z,3.47
2022-10-17T12:45:00.898Z,3.63
2022-10-17T12:47:36.558Z,2.87
2022-10-17T12:50:03.904Z,2.87
2022-10-17T12:52:56.605Z,3.00
2022-10-17T12:55:24.777Z,3.23
2022-10-17T12:57:55.586Z,3.30
2022-10-17T13:00:29.114Z,3.30
2022-10-17T13:03:04.406Z,2.80
2022-10-17T13:05:34.271Z,3.23
2022-10-17T13:08:04.219Z,3.00
2022-10-17T13:10:33.744Z,2.57
2022-10-17T13:13:06.503Z,2.50
2022-10-17T13:15:36.683Z,2.73
2022-10-17T13:18:03.592Z,3.00
2022-10-17T13:20:32.098Z,2.67
2022-10-17T13:22:59.595Z,2.40
2022-10-17T13:25:27.710Z,2.53
2022-10-17T13:28:06.159Z,3.27
2022-10-17T13:30:35.799Z,2.23
2022-10-17T13:33:03.308Z,2.73
2022-10-17T13:38:22.466Z,2.33
2022-10-17T13:40:50.455Z,2.30
2022-10-17T13:43:20.575Z,2.10
2022-10-17T13:45:51.182Z,2.60
2022-10-17T13:48:21.055Z,2.50
2022-10-17T13:50:50.416Z,2.60
2022-10-17T13:53:24.234Z,2.50
2022-10-17T13:56:15.912Z,2.53
2022-10-17T13:58:44.869Z,2.60
2022-10-17T14:01:14.084Z,3.60
2022-10-17T14:03:48.667Z,3.03
2022-10-17T14:06:19.570Z,2.77
2022-10-17T14:08:57.482Z,2.17
2022-10-17T14:11:36.595Z,2.27
2022-10-17T14:14:05.969Z,2.37
2022-10-17T14:16:41.465Z,2.10
2022-10-17T14:19:23.305Z,2.37
2022-10-17T14:21:53.893Z,2.23
2022-10-17T14:24:35.181Z,2.30
2022-10-17T14:27:02.017Z,2.53
2022-10-17T14:29:30.885Z,3.40
2022-10-17T14:32:02.400Z,3.20
2022-10-17T14:34:33.003Z,3.17
2022-10-17T14:37:00.384Z,2.47
2022-10-17T14:39:29.061Z,2.10
2022-10-17T14:41:55.844Z,2.40
2022-10-17T14:44:26.346Z,3.13
2022-10-17T14:46:56.628Z,2.40
2022-10-17T14:49:36.971Z,2.40
2022-10-17T14:52:16.724Z,2.40
2022-10-17T14:54:46.342Z,2.57
2022-10-17T14:57:17.410Z,2.13
2022-10-17T14:59:59.399Z,2.60
2022-10-17T15:02:27.977Z,2.60
2022-10-17T15:04:56.460Z,2.27
2022-10-17T15:07:23.413Z,2.43
2022-10-17T15:09:53.173Z,3.07
2022-10-17T15:12:22.587Z,2.90
2022-10-17T15:14:49.958Z,3.10
2022-10-17T15:17:19.250Z,3.30
2022-10-17T15:19:46.166Z,2.40
2022-10-17T15:22:14.388Z,2.70
2022-10-17T15:24:41.221Z,2.40
2022-10-17T15:27:15.829Z,2.70
2022-10-17T15:29:43.003Z,2.60
2022-10-17T15:32:10.197Z,2.60
2022-10-17T15:34:37.348Z,2.83
2022-10-17T15:37:05.716Z,2.83
2022-10-17T15:39:34.315Z,2.87
2022-10-17T15:42:01.290Z,3.63
2022-10-17T15:44:28.667Z,2.60
2022-10-17T15:46:56.064Z,3.27
2022-10-17T15:49:23.163Z,2.87
2022-10-17T15:51:53.028Z,2.53
2022-10-17T15:54:22.215Z,3.57
2022-10-17T15:56:54.112Z,3.00
2022-10-17T15:59:25.964Z,3.30
2022-10-17T16:01:52.783Z,2.90
2022-10-17T16:04:19.665Z,3.37
2022-10-17T16:06:46.541Z,4.20
2022-10-17T16:09:13.353Z,2.80
2022-10-17T16:11:42.393Z,3.13
2022-10-17T16:14:13.415Z,3.33
2022-10-17T16:16:40.529Z,3.90
2022-10-17T16:19:08.021Z,3.90
2022-10-17T16:21:38.089Z,2.97
2022-10-17T16:24:05.930Z,3.30
2022-10-17T16:26:32.842Z,4.10
2022-10-17T16:28:59.703Z,4.90
2022-10-17T16:31:30.814Z,3.50
2022-10-17T16:33:59.206Z,4.50
2022-10-17T16:36:26.354Z,4.47
2022-10-17T16:38:53.525Z,4.47
2022-10-17T16:41:23.834Z,5.07
2022-10-17T16:43:52.985Z,4.53
2022-10-17T16:46:20.674Z,4.50
2022-10-17T16:48:49.675Z,4.87
2022-10-17T16:51:18.515Z,5.40
2022-10-17T16:53:45.852Z,5.10
2022-10-17T16:56:14.393Z,5.80
2022-10-17T16:58:42.171Z,5.57
2022-10-17T17:01:11.321Z,4.30
2022-10-17T17:03:40.803Z,5.63
2022-10-17T17:06:12.111Z,5.30
2022-10-17T17:08:39.198Z,6.10
2022-10-17T17:11:07.496Z,4.60
2022-10-17T17:13:34.634Z,5.70
2022-10-17T17:16:06.405Z,4.83
2022-10-17T17:18:33.646Z,6.20
2022-10-17T17:21:01.197Z,5.50
2022-10-17T17:23:30.040Z,5.33
2022-10-17T17:25:58.135Z,7.13
2022-10-17T17:28:25.091Z,7.50
2022-10-17T17:30:52.130Z,8.07
2022-10-17T17:33:18.862Z,6.10
2022-10-17T17:35:45.766Z,6.00
2022-10-17T17:38:12.690Z,5.73
2022-10-17T17:40:50.456Z,6.10
2022-10-17T17:43:18.379Z,5.30
2022-10-17T17:45:45.215Z,5.87
2022-10-17T17:48:12.309Z,5.40
2022-10-17T17:50:39.511Z,5.13
2022-10-17T17:53:07.170Z,4.73
2022-10-17T17:55:34.533Z,3.90
2022-10-17T17:58:03.256Z,4.53
2022-10-17T18:00:30.353Z,4.47
2022-10-17T18:02:57.373Z,4.40
2022-10-17T18:05:24.263Z,4.30
2022-10-17T18:07:51.036Z,4.60
2022-10-17T18:10:17.877Z,4.50
2022-10-17T18:12:44.690Z,5.10
2022-10-17T18:15:13.367Z,4.47
2022-10-17T18:17:40.208Z,4.20
2022-10-17T18:20:07.788Z,4.20
2022-10-17T18:22:34.626Z,4.30
2022-10-17T18:25:01.420Z,4.40
2022-10-17T18:27:30.711Z,4.10
2022-10-17T18:29:57.483Z,4.83
2022-10-17T18:32:25.644Z,5.27
2022-10-17T18:34:52.453Z,5.00
2022-10-17T18:37:19.194Z,4.80
2022-10-17T18:39:47.243Z,3.70
2022-10-17T18:42:14.003Z,4.57
2022-10-17T18:44:40.698Z,4.33
2022-10-17T18:47:07.508Z,4.90
2022-10-17T18:49:36.663Z,4.40
2022-10-17T18:52:03.544Z,4.90
2022-10-17T18:54:30.304Z,5.20
2022-10-17T18:56:57.101Z,4.17
2022-10-17T18:59:23.866Z,5.10
2022-10-17T19:01:50.706Z,4.60
2022-10-17T19:04:17.577Z,4.67
2022-10-17T19:06:45.695Z,4.20
2022-10-17T19:09:13.719Z,3.57
2022-10-17T19:11:40.921Z,4.50
2022-10-17T19:14:09.682Z,4.37
2022-10-17T19:16:37.204Z,4.50
2022-10-17T19:19:06.727Z,4.23
2022-10-17T19:21:34.001Z,4.70
2022-10-17T19:24:03.864Z,3.90
2022-10-17T19:26:32.661Z,3.80
2022-10-17T19:29:00.409Z,3.43
2022-10-17T19:31:29.200Z,4.90
2022-10-17T19:33:56.495Z,4.40
2022-10-17T19:36:27.579Z,5.00
2022-10-17T19:38:57.942Z,4.10
2022-10-17T19:41:26.271Z,4.70
2022-10-17T19:43:53.008Z,4.67
2022-10-17T19:46:21.083Z,4.73
2022-10-17T19:48:49.454Z,3.60
2022-10-17T19:51:18.284Z,3.67
2022-10-17T19:53:45.804Z,5.30
2022-10-17T19:56:13.205Z,4.33
2022-10-17T19:58:41.329Z,4.10
2022-10-17T20:01:08.107Z,5.50
2022-10-17T20:03:34.969Z,4.20
2022-10-17T20:06:02.122Z,4.80
2022-10-17T20:08:29.068Z,4.43
2022-10-17T20:10:55.803Z,4.53
2022-10-17T20:13:22.649Z,4.43
2022-10-17T20:15:57.699Z,5.07
2022-10-17T20:18:24.777Z,3.87
2022-10-17T20:20:51.557Z,5.27
2022-10-17T20:23:18.372Z,5.40
2022-10-17T20:25:45.386Z,4.63
2022-10-17T20:28:12.166Z,3.60
2022-10-17T20:30:43.973Z,5.17
2022-10-17T20:33:12.300Z,4.77
2022-10-17T20:35:41.115Z,4.93
2022-10-17T20:38:08.027Z,4.70
2022-10-17T20:40:35.752Z,4.70
2022-10-17T20:43:03.305Z,5.13
2022-10-17T20:45:43.848Z,5.20
2022-10-17T20:48:18.388Z,5.53
2022-10-17T20:50:45.214Z,4.80
2022-10-17T20:56:03.891Z,3.90
2022-10-17T20:58:30.677Z,4.17
2022-10-17T21:00:57.585Z,4.57
2022-10-17T21:03:25.761Z,4.60
2022-10-17T21:05:52.524Z,4.60
2022-10-17T21:08:19.245Z,5.63
2022-10-17T21:10:45.994Z,5.80
2022-10-17T21:13:13.013Z,5.70
2022-10-17T21:15:39.782Z,5.03
2022-10-17T21:18:06.634Z,4.10
2022-10-17T21:20:34.767Z,5.57
2022-10-17T21:23:01.547Z,4.60
2022-10-17T21:25:28.452Z,4.90
2022-10-17T21:27:55.284Z,4.80
2022-10-17T21:30:22.044Z,5.10
2022-10-17T21:32:52.457Z,4.60
2022-10-17T21:35:19.329Z,4.90
2022-10-17T21:37:47.486Z,6.13
2022-10-17T21:40:14.352Z,4.97
2022-10-17T21:42:41.153Z,4.77
2022-10-17T21:45:15.405Z,5.47
2022-10-17T21:48:11.076Z,4.30
2022-10-17T21:50:33.729Z,4.23
2022-10-17T21:53:01.860Z,5.40
2022-10-17T21:55:28.728Z,4.00
2022-10-17T21:57:55.631Z,4.63
2022-10-17T22:00:22.357Z,5.73
2022-10-17T22:02:49.076Z,4.90
2022-10-17T22:05:15.951Z,4.40
2022-10-17T22:07:42.739Z,4.90
2022-10-17T22:10:10.973Z,5.10
2022-10-17T22:12:37.771Z,4.60
2022-10-17T22:15:05.534Z,5.10
2022-10-17T22:17:32.650Z,5.03
2022-10-17T22:19:59.633Z,4.93
2022-10-17T22:22:26.356Z,5.57
2022-10-17T22:24:53.156Z,5.17
2022-10-17T22:27:21.282Z,5.53
2022-10-17T22:29:48.056Z,5.30
2022-10-17T22:32:18.698Z,5.40
2022-10-17T22:34:48.542Z,5.80
2022-10-17T22:37:15.335Z,5.50
2022-10-17T22:39:42.044Z,5.40
2022-10-17T22:42:08.868Z,6.00
2022-10-17T22:44:37.079Z,5.50
2022-10-17T22:47:03.864Z,6.70
2022-10-17T22:49:31.985Z,5.90
2022-10-17T22:51:58.846Z,5.53
2022-10-17T22:54:25.656Z,5.80
2022-10-17T22:56:52.438Z,6.20
2022-10-17T22:59:19.114Z,6.20
2022-10-17T23:01:47.473Z,6.63
2022-10-17T23:04:14.308Z,6.30
2022-10-17T23:06:41.127Z,6.37
2022-10-17T23:09:07.897Z,5.60
2022-10-17T23:11:34.714Z,6.03
2022-10-17T23:14:01.472Z,6.23
2022-10-17T23:16:28.327Z,7.27
2022-10-17T23:18:57.605Z,7.13
2022-10-17T23:21:24.383Z,6.37
2022-10-17T23:23:51.123Z,6.60
2022-10-17T23:26:17.907Z,6.57
2022-10-17T23:28:44.714Z,5.80
2022-10-17T23:31:14.165Z,6.83
2022-10-17T23:33:41.598Z,5.90
2022-10-17T23:36:11.031Z,6.17
2022-10-17T23:38:37.926Z,6.20
2022-10-17T23:41:05.189Z,6.97
2022-10-17T23:43:33.071Z,6.83
2022-10-17T23:46:00.113Z,6.23
2022-10-17T23:48:27.402Z,7.10
2022-10-17T23:50:54.147Z,7.53
2022-10-17T23:53:22.946Z,6.53
2022-10-17T23:55:49.801Z,7.47
2022-10-17T23:58:16.782Z,7.67
